createdAt,value
2018-07-20T00:00:44.970Z,20.50
2018-07-20T00:03:13.232Z,20.50
2018-07-20T00:05:41.433Z,20.50
2018-07-20T00:08:09.620Z,20.30
2018-07-20T00:10:37.756Z,20.20
2018-07-20T00:13:06.030Z,20.10
2018-07-20T00:15:34.172Z,20.10
2018-07-20T00:18:02.339Z,20.00
2018-07-20T00:20:30.509Z,20.10
2018-07-20T00:22:58.720Z,20.10
2018-07-20T00:25:26.881Z,20.00
2018-07-20T00:27:55.064Z,20.00
2018-07-20T00:30:23.260Z,20.10
2018-07-20T00:32:51.387Z,20.10
2018-07-20T00:35:19.525Z,20.10
2018-07-20T00:37:47.668Z,20.00
2018-07-20T00:40:15.840Z,20.00
2018-07-20T00:42:44.001Z,19.90
2018-07-20T00:45:12.252Z,19.90
2018-07-20T00:47:40.396Z,19.90
2018-07-20T00:50:08.619Z,19.90
2018-07-20T00:52:36.767Z,19.90
2018-07-20T00:55:04.960Z,19.90
2018-07-20T00:57:33.168Z,19.90
2018-07-20T01:00:01.320Z,19.90
2018-07-20T01:02:29.479Z,19.80
2018-07-20T01:04:57.621Z,19.80
2018-07-20T01:07:25.764Z,19.80
2018-07-20T01:09:53.899Z,19.70
2018-07-20T01:12:22.045Z,19.70
2018-07-20T01:14:50.188Z,19.70
2018-07-20T01:17:18.371Z,19.70
2018-07-20T01:19:46.533Z,19.70
2018-07-20T01:24:42.608Z,19.70
2018-07-20T01:27:10.788Z,19.70
2018-07-20T01:29:38.952Z,19.60
2018-07-20T01:32:07.124Z,19.60
2018-07-20T01:34:35.326Z,19.70
2018-07-20T01:37:03.526Z,19.60
2018-07-20T01:39:31.652Z,19.70
2018-07-20T01:41:59.824Z,19.60
2018-07-20T01:44:28.023Z,19.50
2018-07-20T01:46:56.164Z,19.60
2018-07-20T01:49:24.334Z,19.60
2018-07-20T01:51:52.490Z,19.50
2018-07-20T01:54:20.651Z,19.50
2018-07-20T01:56:48.812Z,19.50
2018-07-20T01:59:16.952Z,19.60
2018-07-20T02:01:45.112Z,19.50
2018-07-20T02:04:13.286Z,19.60
2018-07-20T02:06:41.419Z,19.50
2018-07-20T02:09:10.747Z,19.40
2018-07-20T02:11:38.863Z,19.50
2018-07-20T02:14:07.027Z,19.40
2018-07-20T02:16:35.173Z,19.40
2018-07-20T02:19:04.133Z,19.30
2018-07-20T02:21:32.339Z,19.30
2018-07-20T02:24:00.484Z,19.30
2018-07-20T02:26:28.683Z,19.40
2018-07-20T02:28:56.863Z,19.40
2018-07-20T02:31:25.026Z,19.40
2018-07-20T02:33:53.195Z,19.30
2018-07-20T02:36:21.376Z,19.30
2018-07-20T02:41:17.461Z,19.40
2018-07-20T02:43:45.749Z,19.30
2018-07-20T02:46:13.880Z,19.30
2018-07-20T02:48:42.019Z,19.30
2018-07-20T02:51:10.163Z,19.30
2018-07-20T02:53:38.312Z,19.30
2018-07-20T02:56:06.495Z,19.20
2018-07-20T02:58:34.706Z,19.20
2018-07-20T03:01:02.866Z,19.20
2018-07-20T03:03:31.013Z,19.20
2018-07-20T03:05:59.192Z,19.20
2018-07-20T03:08:27.324Z,19.10
2018-07-20T03:10:55.466Z,19.10
2018-07-20T03:13:23.609Z,19.10
2018-07-20T03:15:51.761Z,19.00
2018-07-20T03:18:19.949Z,19.00
2018-07-20T03:20:48.081Z,19.00
2018-07-20T03:23:16.244Z,19.00
2018-07-20T03:25:44.417Z,19.00
2018-07-20T03:28:12.607Z,19.00
2018-07-20T03:30:40.772Z,18.90
2018-07-20T03:33:08.919Z,18.80
2018-07-20T03:35:37.056Z,18.80
2018-07-20T03:38:05.238Z,18.90
2018-07-20T03:40:33.408Z,18.90
2018-07-20T03:43:01.573Z,18.90
2018-07-20T03:45:29.720Z,18.80
2018-07-20T03:47:57.865Z,18.80
2018-07-20T03:50:26.053Z,18.80
2018-07-20T03:52:54.244Z,18.80
2018-07-20T03:55:22.445Z,18.70
2018-07-20T03:57:50.614Z,18.70
2018-07-20T04:02:46.660Z,18.70
2018-07-20T04:05:15.046Z,18.70
2018-07-20T04:07:43.188Z,18.70
2018-07-20T04:10:11.388Z,18.70
2018-07-20T04:12:39.535Z,18.70
2018-07-20T04:15:07.680Z,18.70
2018-07-20T04:17:41.595Z,18.70
2018-07-20T04:20:09.740Z,18.70
2018-07-20T04:22:37.888Z,18.80
2018-07-20T04:25:06.494Z,18.80
2018-07-20T04:27:34.769Z,18.70
2018-07-20T04:30:03.096Z,18.70
2018-07-20T04:32:31.247Z,18.70
2018-07-20T04:34:59.532Z,18.70
2018-07-20T04:37:27.761Z,18.70
2018-07-20T04:39:55.921Z,18.70
2018-07-20T04:42:24.111Z,18.70
2018-07-20T04:44:52.487Z,18.70
2018-07-20T04:47:20.660Z,18.80
2018-07-20T04:49:48.774Z,18.70
2018-07-20T04:54:45.182Z,18.80
2018-07-20T04:57:13.408Z,18.90
2018-07-20T04:59:41.539Z,18.90
2018-07-20T05:07:06.159Z,19.10
2018-07-20T05:09:34.313Z,19.20
2018-07-20T05:12:02.506Z,19.20
2018-07-20T05:14:30.710Z,19.30
2018-07-20T05:16:58.860Z,19.30
2018-07-20T05:19:27.003Z,19.40
2018-07-20T05:21:55.389Z,19.40
2018-07-20T05:24:23.619Z,19.50
2018-07-20T05:26:52.123Z,19.70
2018-07-20T05:29:20.332Z,19.70
2018-07-20T05:31:48.472Z,19.80
2018-07-20T05:34:16.613Z,19.80
2018-07-20T05:36:44.756Z,19.90
2018-07-20T05:39:12.988Z,20.00
2018-07-20T05:41:41.123Z,20.00
2018-07-20T05:44:09.381Z,20.00
2018-07-20T05:46:37.504Z,20.10
2018-07-20T05:49:05.693Z,20.10
2018-07-20T05:54:01.824Z,20.00
2018-07-20T05:56:30.049Z,20.10
2018-07-20T05:58:58.175Z,20.10
2018-07-20T06:01:26.344Z,20.20
2018-07-20T06:03:54.512Z,20.20
2018-07-20T06:06:22.764Z,20.10
2018-07-20T06:08:50.926Z,20.20
2018-07-20T06:11:19.271Z,20.20
2018-07-20T06:13:47.396Z,20.20
2018-07-20T06:16:15.644Z,20.30
2018-07-20T06:18:43.777Z,20.40
2018-07-20T06:21:11.956Z,20.50
2018-07-20T06:23:40.152Z,20.50
2018-07-20T06:26:08.243Z,20.60
2018-07-20T06:28:36.446Z,20.70
2018-07-20T06:31:04.680Z,20.70
2018-07-20T06:33:32.864Z,20.80
2018-07-20T06:36:01.046Z,20.80
2018-07-20T06:38:29.284Z,20.90
2018-07-20T06:40:57.502Z,20.90
2018-07-20T06:43:25.682Z,20.90
2018-07-20T06:45:53.961Z,20.90
2018-07-20T06:48:22.267Z,20.90
2018-07-20T06:50:50.385Z,21.00
2018-07-20T06:53:18.684Z,21.00
2018-07-20T06:55:46.949Z,21.00
2018-07-20T06:58:15.073Z,21.20
2018-07-20T07:00:43.210Z,21.20
2018-07-20T07:05:39.422Z,21.30
2018-07-20T07:08:07.540Z,21.30
2018-07-20T07:10:35.697Z,21.40
2018-07-20T07:13:03.854Z,21.40
2018-07-20T07:15:31.976Z,21.40
2018-07-20T07:18:00.133Z,21.50
2018-07-20T07:20:28.508Z,21.50
2018-07-20T07:22:56.675Z,21.50
2018-07-20T07:25:24.832Z,21.50
2018-07-20T07:27:52.995Z,21.50
2018-07-20T07:30:21.173Z,21.50
2018-07-20T07:32:49.437Z,21.50
2018-07-20T07:35:17.591Z,21.60
2018-07-20T07:37:45.747Z,21.60
2018-07-20T07:40:13.915Z,21.80
2018-07-20T07:42:42.061Z,21.80
2018-07-20T07:45:10.212Z,21.80
2018-07-20T07:47:38.389Z,21.80
2018-07-20T07:50:06.546Z,21.90
2018-07-20T07:52:34.767Z,21.90
2018-07-20T07:55:02.894Z,21.90
2018-07-20T07:57:31.103Z,21.90
2018-07-20T07:59:59.225Z,22.00
2018-07-20T08:02:27.383Z,22.10
2018-07-20T08:04:55.636Z,22.10
2018-07-20T08:07:23.993Z,22.10
2018-07-20T08:09:52.189Z,22.20
2018-07-20T08:12:20.337Z,22.20
2018-07-20T08:14:48.480Z,22.20
2018-07-20T08:17:16.665Z,22.40
2018-07-20T08:19:44.809Z,22.40
2018-07-20T08:22:12.968Z,22.60
2018-07-20T08:24:41.181Z,22.60
2018-07-20T08:27:09.342Z,22.70
2018-07-20T08:29:37.608Z,22.70
2018-07-20T08:32:05.817Z,22.80
2018-07-20T08:34:34.051Z,22.80
2018-07-20T08:37:02.213Z,23.00
2018-07-20T08:39:30.370Z,23.20
2018-07-20T08:41:58.507Z,23.20
2018-07-20T08:44:26.748Z,23.30
2018-07-20T08:46:54.919Z,23.30
2018-07-20T08:49:23.107Z,23.40
2018-07-20T08:51:51.234Z,23.50
2018-07-20T08:54:19.378Z,23.50
2018-07-20T08:56:47.539Z,23.50
2018-07-20T08:59:15.732Z,23.60
2018-07-20T09:01:43.893Z,23.70
2018-07-20T09:04:14.253Z,23.80
2018-07-20T09:06:44.732Z,24.00
2018-07-20T09:09:12.951Z,23.90
2018-07-20T09:16:36.991Z,24.30
2018-07-20T09:19:05.168Z,24.40
2018-07-20T09:21:33.375Z,24.50
2018-07-20T09:24:01.810Z,24.60
2018-07-20T09:26:30.262Z,24.60
2018-07-20T09:28:58.589Z,24.60
2018-07-20T09:31:27.413Z,24.70
2018-07-20T09:33:55.603Z,24.80
2018-07-20T09:36:24.163Z,24.80
2018-07-20T09:38:52.437Z,24.90
2018-07-20T09:41:20.810Z,25.10
2018-07-20T09:46:16.975Z,25.10
2018-07-20T09:48:45.299Z,25.20
2018-07-20T09:51:13.504Z,25.10
2018-07-20T09:53:41.746Z,25.30
2018-07-20T09:56:09.903Z,25.40
2018-07-20T09:58:38.072Z,25.40
2018-07-20T10:01:06.443Z,25.30
2018-07-20T10:03:34.625Z,25.50
2018-07-20T10:06:02.812Z,25.50
2018-07-20T10:08:30.939Z,25.60
2018-07-20T10:10:59.109Z,25.90
2018-07-20T10:13:27.469Z,25.90
2018-07-20T10:15:55.601Z,25.70
2018-07-20T10:18:23.776Z,25.70
2018-07-20T10:20:51.937Z,25.70
2018-07-20T10:23:20.078Z,25.90
2018-07-20T10:25:48.226Z,25.90
2018-07-20T10:28:16.763Z,26.20
2018-07-20T10:30:45.543Z,26.20
2018-07-20T10:33:13.689Z,26.20
2018-07-20T10:35:42.046Z,26.30
2018-07-20T10:38:10.505Z,26.40
2018-07-20T10:40:38.741Z,26.40
2018-07-20T10:43:07.046Z,26.50
2018-07-20T10:45:35.286Z,26.50
2018-07-20T10:48:03.584Z,26.50
2018-07-20T10:50:32.073Z,26.60
2018-07-20T10:53:00.321Z,26.50
2018-07-20T10:55:28.852Z,26.70
2018-07-20T10:57:57.167Z,26.90
2018-07-20T11:00:25.339Z,26.80
2018-07-20T11:02:53.516Z,26.70
2018-07-20T11:05:21.749Z,26.80
2018-07-20T11:07:49.959Z,26.70
2018-07-20T11:10:18.135Z,26.80
2018-07-20T11:12:46.290Z,26.70
2018-07-20T11:15:14.419Z,26.80
2018-07-20T11:17:42.588Z,27.10
2018-07-20T11:20:10.730Z,27.00
2018-07-20T11:22:38.858Z,27.00
2018-07-20T11:25:06.991Z,26.80
2018-07-20T11:27:35.143Z,26.80
2018-07-20T11:30:03.281Z,26.80
2018-07-20T11:32:31.450Z,26.90
2018-07-20T11:34:59.612Z,27.10
2018-07-20T11:37:27.862Z,27.20
2018-07-20T11:39:56.015Z,27.20
2018-07-20T11:42:24.229Z,27.20
2018-07-20T11:44:52.376Z,27.00
2018-07-20T11:47:20.664Z,26.90
2018-07-20T11:49:48.811Z,26.90
2018-07-20T11:52:16.959Z,27.00
2018-07-20T11:54:45.146Z,27.20
2018-07-20T11:57:13.283Z,27.10
2018-07-20T11:59:41.456Z,27.10
2018-07-20T12:02:09.714Z,27.20
2018-07-20T12:04:37.840Z,27.20
2018-07-20T12:07:06.027Z,27.30
2018-07-20T12:09:34.201Z,27.20
2018-07-20T12:12:02.386Z,27.10
2018-07-20T12:14:30.771Z,27.10
2018-07-20T12:16:58.916Z,27.20
2018-07-20T12:19:27.550Z,27.10
2018-07-20T12:21:56.136Z,27.10
2018-07-20T12:24:24.369Z,27.10
2018-07-20T12:26:52.743Z,27.00
2018-07-20T12:29:21.191Z,27.20
2018-07-20T12:31:49.631Z,27.20
2018-07-20T12:34:17.912Z,27.30
2018-07-20T12:39:19.532Z,27.30
2018-07-20T12:41:47.730Z,27.20
2018-07-20T12:44:15.948Z,27.30
2018-07-20T12:46:44.141Z,27.30
2018-07-20T12:49:12.249Z,27.40
2018-07-20T12:51:40.463Z,27.70
2018-07-20T12:54:08.671Z,27.60
2018-07-20T12:56:36.860Z,27.50
2018-07-20T12:59:05.144Z,27.50
2018-07-20T13:01:33.281Z,27.50
2018-07-20T13:06:29.374Z,27.60
2018-07-20T13:08:57.575Z,27.70
2018-07-20T13:11:25.716Z,27.60
2018-07-20T13:13:53.916Z,27.70
2018-07-20T13:16:22.052Z,27.70
2018-07-20T13:18:50.185Z,27.80
2018-07-20T13:21:19.388Z,27.80
2018-07-20T13:23:47.646Z,27.90
2018-07-20T13:26:15.830Z,27.80
2018-07-20T13:28:44.052Z,27.70
2018-07-20T13:31:12.220Z,27.80
2018-07-20T13:33:40.413Z,28.00
2018-07-20T13:36:08.615Z,27.90
2018-07-20T13:41:04.815Z,28.10
2018-07-20T13:43:33.235Z,28.20
2018-07-20T13:46:01.572Z,28.10
2018-07-20T13:48:29.752Z,28.30
2018-07-20T13:50:57.919Z,28.40
2018-07-20T13:53:26.115Z,28.40
2018-07-20T13:55:54.313Z,28.40
2018-07-20T13:58:22.518Z,28.60
2018-07-20T14:00:50.618Z,28.80
2018-07-20T14:03:18.791Z,28.80
2018-07-20T14:05:46.931Z,29.10
2018-07-20T14:08:15.065Z,29.10
2018-07-20T14:10:43.277Z,29.30
2018-07-20T14:13:11.414Z,29.80
2018-07-20T14:15:39.692Z,29.90
2018-07-20T14:18:07.902Z,30.20
2018-07-20T14:20:36.102Z,30.60
2018-07-20T14:23:04.512Z,30.80
2018-07-20T14:25:32.678Z,31.20
2018-07-20T14:28:00.993Z,30.80
2018-07-20T14:30:29.125Z,30.40
2018-07-20T14:32:57.368Z,30.20
2018-07-20T14:35:25.688Z,30.40
2018-07-20T14:37:54.070Z,30.50
2018-07-20T14:40:22.285Z,30.80
2018-07-20T14:42:50.567Z,31.00
2018-07-20T14:45:18.768Z,31.10
2018-07-20T14:47:46.986Z,31.20
2018-07-20T14:50:15.162Z,31.50
2018-07-20T14:52:43.942Z,31.50
2018-07-20T14:55:12.127Z,31.50
2018-07-20T14:57:40.304Z,31.70
2018-07-20T15:00:08.441Z,31.80
2018-07-20T15:02:36.617Z,31.60
2018-07-20T15:05:04.820Z,31.60
2018-07-20T15:07:32.981Z,32.00
2018-07-20T15:10:01.159Z,32.10
2018-07-20T15:12:29.341Z,32.30
2018-07-20T15:14:57.515Z,32.50
2018-07-20T15:17:25.688Z,32.50
2018-07-20T15:19:53.867Z,32.70
2018-07-20T15:22:22.035Z,33.20
2018-07-20T15:24:50.189Z,33.30
2018-07-20T15:27:18.354Z,33.40
2018-07-20T15:29:46.464Z,33.20
2018-07-20T15:34:42.575Z,32.20
2018-07-20T15:37:10.728Z,31.80
2018-07-20T15:39:38.847Z,31.80
2018-07-20T15:42:06.995Z,31.80
2018-07-20T15:44:35.300Z,31.90
2018-07-20T15:47:03.625Z,31.60
2018-07-20T15:49:31.705Z,31.30
2018-07-20T15:54:28.079Z,30.90
2018-07-20T15:56:56.205Z,30.90
2018-07-20T16:01:52.280Z,30.60
2018-07-20T16:04:20.448Z,30.50
2018-07-20T16:06:48.647Z,31.60
2018-07-20T16:09:16.795Z,32.60
2018-07-20T16:11:44.978Z,33.10
2018-07-20T16:14:13.193Z,33.60
2018-07-20T16:16:41.367Z,33.50
2018-07-20T16:19:09.503Z,33.40
2018-07-20T16:21:37.644Z,33.50
2018-07-20T16:24:06.102Z,34.30
2018-07-20T16:26:34.310Z,34.90
2018-07-20T16:29:02.458Z,35.10
2018-07-20T16:31:30.604Z,34.60
2018-07-20T16:33:58.743Z,34.20
2018-07-20T16:36:26.892Z,34.20
2018-07-20T16:38:55.073Z,34.70
2018-07-20T16:41:23.298Z,34.90
2018-07-20T16:43:51.479Z,34.60
2018-07-20T16:46:19.632Z,34.40
2018-07-20T16:48:47.840Z,34.70
2018-07-20T16:51:16.035Z,34.80
2018-07-20T16:53:44.220Z,34.80
2018-07-20T16:56:12.367Z,35.10
2018-07-20T16:58:40.524Z,34.50
2018-07-20T17:01:09.320Z,33.10
2018-07-20T17:03:37.697Z,32.30
2018-07-20T17:06:06.079Z,31.80
2018-07-20T17:08:34.318Z,31.20
2018-07-20T17:11:02.405Z,31.20
2018-07-20T17:13:30.541Z,30.90
2018-07-20T17:15:58.707Z,30.80
2018-07-20T17:18:26.883Z,30.50
2018-07-20T17:20:55.036Z,30.50
2018-07-20T17:23:23.200Z,30.30
2018-07-20T17:25:51.468Z,30.40
2018-07-20T17:28:19.608Z,30.60
2018-07-20T17:30:47.753Z,32.10
2018-07-20T17:33:15.942Z,32.70
2018-07-20T17:35:44.032Z,33.00
2018-07-20T17:38:12.190Z,33.30
2018-07-20T17:40:40.336Z,32.40
2018-07-20T17:43:08.533Z,32.00
2018-07-20T17:45:36.721Z,32.40
2018-07-20T17:48:04.876Z,32.40
2018-07-20T17:50:33.030Z,32.30
2018-07-20T17:53:01.220Z,32.50
2018-07-20T17:55:29.388Z,32.50
2018-07-20T17:57:57.543Z,32.60
2018-07-20T18:00:25.711Z,32.70
2018-07-20T18:02:53.885Z,32.70
2018-07-20T18:05:22.040Z,32.70
2018-07-20T18:07:50.174Z,32.70
2018-07-20T18:10:18.375Z,32.70
2018-07-20T18:12:46.518Z,32.60
2018-07-20T18:15:14.657Z,31.90
2018-07-20T18:17:42.867Z,31.20
2018-07-20T18:20:11.041Z,31.20
2018-07-20T18:22:39.376Z,31.10
2018-07-20T18:25:07.562Z,31.20
2018-07-20T18:27:35.693Z,30.80
2018-07-20T18:30:04.323Z,30.40
2018-07-20T18:32:32.454Z,30.10
2018-07-20T18:35:00.568Z,30.00
2018-07-20T18:37:28.731Z,29.80
2018-07-20T18:39:56.910Z,29.70
2018-07-20T18:42:25.049Z,29.50
2018-07-20T18:44:53.197Z,29.40
2018-07-20T18:47:21.352Z,29.30
2018-07-20T18:49:49.458Z,29.20
2018-07-20T18:52:17.587Z,29.10
2018-07-20T18:54:45.756Z,28.90
2018-07-20T18:57:13.905Z,28.80
2018-07-20T18:59:42.043Z,28.70
2018-07-20T19:02:10.852Z,28.60
2018-07-20T19:04:39.099Z,28.40
2018-07-20T19:07:07.222Z,28.40
2018-07-20T19:12:03.271Z,28.20
2018-07-20T19:14:31.413Z,28.10
2018-07-20T19:16:59.598Z,27.90
2018-07-20T19:19:27.823Z,27.70
2018-07-20T19:21:56.045Z,27.70
2018-07-20T19:24:24.232Z,27.60
2018-07-20T19:26:52.451Z,27.50
2018-07-20T19:29:20.563Z,27.40
2018-07-20T19:31:48.716Z,27.30
2018-07-20T19:34:16.919Z,27.20
2018-07-20T19:36:45.034Z,27.10
2018-07-20T19:39:13.198Z,27.00
2018-07-20T19:41:41.343Z,26.90
2018-07-20T19:44:09.504Z,26.80
2018-07-20T19:49:05.791Z,26.70
2018-07-20T19:51:33.994Z,26.60
2018-07-20T19:54:02.135Z,26.60
2018-07-20T19:56:30.308Z,26.50
2018-07-20T19:58:58.484Z,26.50
2018-07-20T20:01:26.636Z,26.30
2018-07-20T20:03:54.770Z,26.20
2018-07-20T20:06:23.008Z,26.10
2018-07-20T20:08:51.211Z,26.00
2018-07-20T20:11:19.646Z,25.90
2018-07-20T20:13:47.799Z,25.90
2018-07-20T20:16:16.027Z,25.80
2018-07-20T20:18:44.155Z,25.80
2018-07-20T20:21:12.301Z,25.90
2018-07-20T20:23:40.457Z,25.80
2018-07-20T20:26:08.616Z,25.90
2018-07-20T20:28:36.835Z,26.00
2018-07-20T20:31:05.054Z,26.10
2018-07-20T20:33:33.405Z,26.10
2018-07-20T20:36:01.969Z,26.10
2018-07-20T20:38:30.087Z,26.10
2018-07-20T20:40:58.315Z,26.20
2018-07-20T20:43:26.799Z,26.20
2018-07-20T20:45:54.968Z,26.10
2018-07-20T20:48:23.135Z,26.10
2018-07-20T20:50:51.300Z,26.00
2018-07-20T20:53:19.442Z,26.00
2018-07-20T20:55:47.632Z,25.90
2018-07-20T20:58:15.807Z,25.90
2018-07-20T21:00:43.963Z,25.90
2018-07-20T21:03:12.112Z,25.80
2018-07-20T21:05:40.327Z,25.90
2018-07-20T21:08:08.560Z,25.90
2018-07-20T21:10:36.771Z,25.70
2018-07-20T21:13:05.189Z,25.70
2018-07-20T21:15:33.428Z,25.80
2018-07-20T21:18:02.098Z,25.70
2018-07-20T21:20:30.269Z,25.60
2018-07-20T21:22:58.441Z,25.50
2018-07-20T21:25:26.617Z,25.40
2018-07-20T21:27:54.920Z,25.40
2018-07-20T21:30:23.071Z,25.40
2018-07-20T21:32:52.688Z,25.40
2018-07-20T21:35:20.836Z,25.40
2018-07-20T21:37:49.136Z,25.40
2018-07-20T21:40:17.510Z,25.40
2018-07-20T21:42:45.660Z,25.40
2018-07-20T21:45:13.843Z,25.40
2018-07-20T21:47:43.136Z,25.30
2018-07-20T21:50:11.361Z,25.20
2018-07-20T21:52:39.579Z,25.20
2018-07-20T21:55:07.723Z,25.10
2018-07-20T21:57:35.887Z,25.10
2018-07-20T22:00:05.460Z,25.20
2018-07-20T22:02:33.873Z,25.20
2018-07-20T22:05:02.161Z,25.20
2018-07-20T22:07:30.391Z,25.20
2018-07-20T22:09:58.548Z,25.20
2018-07-20T22:12:26.760Z,25.10
2018-07-20T22:17:23.148Z,25.10
2018-07-20T22:19:51.317Z,25.10
2018-07-20T22:22:19.529Z,25.00
2018-07-20T22:24:47.703Z,25.00
2018-07-20T22:27:15.940Z,25.00
2018-07-20T22:29:44.175Z,25.00
2018-07-20T22:32:12.336Z,25.00
2018-07-20T22:34:40.492Z,24.90
2018-07-20T22:37:08.736Z,24.90
2018-07-20T22:39:36.899Z,24.80
2018-07-20T22:42:05.079Z,24.80
2018-07-20T22:44:33.294Z,24.80
2018-07-20T22:47:01.493Z,24.70
2018-07-20T22:49:29.685Z,24.60
2018-07-20T22:51:57.884Z,24.60
2018-07-20T22:54:26.040Z,24.60
2018-07-20T22:56:54.277Z,24.60
2018-07-20T22:59:22.544Z,24.50
2018-07-20T23:01:50.739Z,24.50
2018-07-20T23:04:18.854Z,24.50
2018-07-20T23:06:47.031Z,24.50
2018-07-20T23:09:15.264Z,24.50
2018-07-20T23:11:43.452Z,24.40
2018-07-20T23:14:11.638Z,24.40
2018-07-20T23:16:39.784Z,24.40
2018-07-20T23:19:08.337Z,24.40
2018-07-20T23:21:36.563Z,24.30
2018-07-20T23:24:04.712Z,24.30
2018-07-20T23:26:32.860Z,24.30
2018-07-20T23:29:01.058Z,24.30
2018-07-20T23:31:29.423Z,24.30
2018-07-20T23:33:57.588Z,24.20
2018-07-20T23:36:25.822Z,24.30
2018-07-20T23:38:53.971Z,24.30
2018-07-20T23:41:22.128Z,24.30
2018-07-20T23:43:50.310Z,24.20
2018-07-20T23:46:18.464Z,24.20
2018-07-20T23:48:46.642Z,24.10
2018-07-20T23:51:14.781Z,24.10
2018-07-20T23:53:42.962Z,24.10
2018-07-20T23:56:11.144Z,24.10
2018-07-20T23:58:39.298Z,24.10
